LEBG

Details ICAO LEBG (RGS)
Name Burgos
Region Spain
Timezone Europe/Madrid (UTC+2.0)
Plans Departing 62
Arriving 38
Stats Elevation 2,961 ft / 903 m (AMSL)
Location 42.356895° -3.614221°
Runways 1
Magnetic Variation 0.733° W
Sunrise 2018-05-22 04:48:16 UTC / 2018-05-22 06:48:16 Local
Sunset 2018-05-22 19:36:50 UTC / 2018-05-22 21:36:50 Local
Advertisement - Login to hide

Runways

ID Width Length Bearing (true) Bearing (mag) Surface Threshold Offset Overrun Length
04 148 ft / 45 m 6,423 ft / 1,958 m 43.31° 44.04° Asphalt 0 ft / 0 m 0 ft / 0 m
22 148 ft / 45 m 6,423 ft / 1,958 m 223.32° 224.05° Asphalt 0 ft / 0 m 0 ft / 0 m

Map

Weather


0- 5 10 15 20 25 30 35+ Temperature / ° C

Clouds and Precipitation
Forecast for 2018-05-22 12:00 UTC. Updated 3 hours ago

Ground ~20,000 ft ~40,000 ft Winds

METAR

LEBG 221400Z 35007KT 310V030 9999 FEW035 20/03 Q1016

TAF

Not found

Frequencies

Tower 125.42 MHz AFIS
Approach 118.45 MHz GMC
Warning: Do not use this data for real-world aviation or navigation. No guarantee of current accuracy is given.